Etusivu
METAR-TAF:

METAR-TAF

Lentoasemat :

Julius Nyereren kansainvälinen lentoasema

Dar es Salaam, Tansania

Leveyspiiri: 06-52S, Pituuspiiri: 039-12E, korkeus merenpinnasta: 55 m

Tämänhetkinen sää

Tämä raportti tehtiin 1 tunti ja 4 minuuttia sitten, kello 07.00 UTC
Tuuli 10 kn etelästä/lounaasta
Lämpötila 30°C
Kosteus 75%
Ilmanpaine 1013 hPa
Näkyvyys 10 km tai enemmän
Muutamia pilviä 1600 ft:n korkeudessa
Muutamia pilviä 1900 ft:n korkeudessa, Cumulonimbus.
Hajonneita pilviä 8000 ft:n korkeudessa

METAR: HTDA 240700Z 20010KT 9999 FEW016 FEW019CB BKN080 30/25 Q1013 NOSIG

Aika: 11:04 (08:04 UTC)

Sääennuste

Tämä raportti tehtiin 3 tuntia ja 4 minuuttia sitten, kello 05.00 UTC
Ennuste voimassa 24. päivästä klo 06 UTC - 25. päivään klo 12 UTC
Tuuli 10 kn lännestä/lounaasta
Näkyvyys 10 km tai enemmän
Hajanaisia pilviä 1200 ft:n korkeudessa
Muutamia pilviä 1300 ft:n korkeudessa, Cumulonimbus.

TAF: HTDA 240500Z 2406/2512 24010KT 9999 SCT012 FEW013CB

Säähavainnot ja -ennusteet yli 4000 lentoasemalta (METAR- ja TAF-raportit).

Käytössä olevat sääasemat on merkitty karttaan keltaisilla ja punaisilla pisteillä.

Aseta hiiri pisteen päälle nähdäksesi sääaseman nimen.

Klikkaa sitten nähdäksesi säähavainnot ja -ennusteet.

Kartan vaihtaminen: klikkaa mustalla rastilla varustettuja vihreitä pisteitä, niin voit zoomata sisään; viivalla varustettua vihreää pistettä, niin voit zoomata ulos tai vihreitä nuolia, niin pääset viereisille kartoille.


METAR-TAF: